ADDS METAR Data INFO
IDs: Format: Raw Decoded Include TAF

Data at: 2009 UTC 18 Jul 2018

KIYA 181955Z AUTO 26009G21KT 230V290 10SM SCT037 BKN046 BKN050 32/25 A2997 RMK AO2 LTG DSNT N THRU SE T03230247
KIYA 181935Z AUTO 27008G30KT 10SM BKN037 BKN046 BKN050 32/25 A2998 RMK AO2 T03220251
KIYA 181915Z AUTO 28011G28KT 240V320 10SM SCT039 SCT047 33/26 A2998 RMK AO2 LTG DSNT S T03330256
KIYA 181855Z AUTO 28007KT 10SM SCT036 SCT045 SCT050 33/26 A2999 RMK AO2 T03280258
KIYA 181835Z AUTO 10SM BKN036 BKN043 32/26 A3000 RMK AO2 T03200258
KIYA 181815Z AUTO 24006KT 10SM BKN032 BKN041 BKN050 32/25 A3001 RMK AO2 T03170253
KIYA 181755Z AUTO 10SM BKN032 BKN038 OVC110 32/26 A3001 RMK AO2 T03170261 10323 20262
KIYA 181735Z AUTO 25010G25KT 10SM BKN032 BKN039 BKN046 32/26 A3001 RMK AO2 T03210259
KIYA 181715Z AUTO 26008KT 10SM SCT032 32/26 A3001 RMK AO2 T03170257
KIYA 181655Z AUTO 26009G14KT 10SM SCT027 SCT034 32/26 A3002 RMK AO2 T03150255
KIYA 181635Z AUTO 25008G26KT 10SM BKN027 BKN034 BKN110 31/26 A3002 RMK AO2 T03100258
KIYA 181615Z AUTO 26007KT 10SM BKN025 BKN032 BKN039 31/26 A3003 RMK AO2 T03050257
KIYA 181555Z AUTO 26010KT 10SM BKN025 BKN033 BKN039 31/26 A3003 RMK AO2 T03080263
KIYA 181535Z AUTO 27007G19KT 10SM SCT022 BKN029 31/27 A3003 RMK AO2 T03050266
KIYA 181515Z AUTO 28009G19KT 10SM SCT020 BKN027 30/26 A3004 RMK AO2 T02970264
KIYA 181455Z AUTO 27009KT 10SM BKN020 BKN025 BKN120 30/27 A3003 RMK AO2 T02990270
KIYA 181435Z AUTO 28010G34KT 10SM BKN020 BKN120 29/27 A3003 RMK AO2 T02930269
KIYA 181415Z AUTO 27010G25KT 230V310 10SM SCT018 29/27 A3003 RMK AO2 T02940267
KIYA 181355Z AUTO 10SM CLR 29/27 A3003 RMK AO2 T02900268
KIYA 181335Z AUTO 24006KT 10SM CLR 29/27 A3003 RMK AO2 LTG DSNT N T02870269
KIYA 181315Z AUTO 10SM CLR 29/27 A3002 RMK AO2 T02850269
KIYA 181255Z AUTO 24004KT 10SM CLR 28/27 A3002 RMK AO2 T02760267
KIYA 181235Z AUTO 23003KT 10SM CLR 27/27 A3002 RMK AO2 T02700267
KIYA 181215Z AUTO 22004KT 10SM CLR 27/27 A3003 RMK AO2 LTG DSNT E T02650265
KIYA 181155Z AUTO 24003KT 10SM SCT100 26/26 A3003 RMK AO2 7//// T02610261 10265 20256
KIYA 181135Z AUTO 21003KT 10SM CLR 26/26 A3003 RMK AO2 T02610261
KIYA 181115Z AUTO 23003KT 10SM CLR 26/26 A3002 RMK AO2 T02630263
KIYA 181055Z AUTO 22004KT 10SM SCT095 BKN110 27/27 A3002 RMK AO2 T02650265
KIYA 181035Z AUTO 24004KT 10SM SCT090 OVC120 26/26 A3002 RMK AO2 T02630263
KIYA 181015Z AUTO 23004KT 10SM OVC120 26/26 A3002 RMK AO2 T02610261
KIYA 180955Z AUTO 10SM SCT100 BKN120 26/26 A3002 RMK AO2 T02600260
KIYA 180935Z AUTO 00000KT 10SM BKN100 OVC120 26/26 A3002 RMK AO2 T02610261
KIYA 180915Z AUTO 00000KT 10SM OVC100 26/26 A3000 RMK AO2 T02600260
KIYA 180855Z AUTO 21003KT 10SM SCT023 OVC100 26/26 A3000 RMK AO2 T02580258
KIYA 180835Z AUTO 00000KT 10SM SCT021 BKN100 26/26 A3000 RMK AO2 T02570257
KIYA 180815Z AUTO 00000KT 10SM SCT100 26/26 A3000 RMK AO2 T02560256
KIYA 180755Z AUTO 00000KT 10SM CLR 26/26 A2999 RMK AO2 T02570257
KIYA 180735Z AUTO 22003KT 10SM CLR 26/26 A3000 RMK AO2 T02570257
KIYA 180715Z AUTO 00000KT 10SM CLR 26/26 A3000 RMK AO2 T02590259
KIYA 180655Z AUTO 22003KT 10SM CLR 26/26 A2999 RMK AO2 T02600260
KIYA 180635Z AUTO 22005KT 10SM CLR 26/26 A2999 RMK AO2 T02600260
KIYA 180615Z AUTO 23004KT 10SM CLR 26/26 A3000 RMK AO2 T02600260
KIYA 180555Z AUTO 21004KT 10SM CLR 26/26 A3000 RMK AO2 T02620262 10300 20262
KIYA 180535Z AUTO 23004KT 10SM CLR 27/27 A3001 RMK AO2 T02650265
KIYA 180515Z AUTO 22004KT 10SM CLR 27/27 A3001 RMK AO2 T02650265
KIYA 180455Z AUTO 21004KT 10SM CLR 27/27 A3002 RMK AO2 T02670265
KIYA 180435Z AUTO 22005KT 10SM CLR 27/26 A3003 RMK AO2 T02700263
KIYA 180415Z AUTO 24004KT 10SM CLR 27/27 A3003 RMK AO2 T02680265
KIYA 180355Z AUTO 23004KT 10SM CLR 27/26 A3003 RMK AO2 T02690264
KIYA 180335Z AUTO 22004KT 10SM CLR 27/26 A3002 RMK AO2 T02700263
KIYA 180315Z AUTO 22004KT 10SM CLR 27/26 A3002 RMK AO2 T02710261
KIYA 180255Z AUTO 23005KT 10SM CLR 27/26 A3003 RMK AO2 T02720260
KIYA 180235Z AUTO 22004KT 10SM CLR 28/26 A3002 RMK AO2 T02750257
KIYA 180215Z AUTO 21003KT 10SM CLR 28/26 A3002 RMK AO2 T02750258
KIYA 180155Z AUTO 22005KT 10SM CLR 28/26 A3002 RMK AO2 T02780259
KIYA 180135Z AUTO 22005KT 10SM CLR 28/26 A3002 RMK AO2 T02810260
KIYA 180115Z AUTO 21004KT 10SM CLR 29/26 A3002 RMK AO2 T02860260
KIYA 180055Z AUTO 10SM CLR 29/26 A3001 RMK AO2 T02890258
KIYA 180035Z AUTO 22006G31KT 10SM CLR 29/26 A3001 RMK AO2 T02930255
KIYA 180015Z AUTO 10SM CLR 30/26 A3000 RMK AO2 T02980262
KIYA 172355Z AUTO 22006KT 10SM CLR 30/25 A3000 RMK AO2 T03010248 10327 20301
KIYA 172335Z AUTO 10SM CLR 31/23 A3001 RMK AO2 T03060232
KIYA 172315Z AUTO 24003KT 10SM CLR 31/23 A3002 RMK AO2 T03060233
KIYA 172255Z AUTO 23003KT 10SM CLR 31/22 A3002 RMK AO2 T03100220
KIYA 172235Z AUTO 10SM CLR 31/21 A3002 RMK AO2 T03130209
KIYA 172215Z AUTO 24006KT 10SM CLR 31/22 A3002 RMK AO2 T03140217
KIYA 172155Z AUTO 20005KT 10SM CLR 31/23 A3002 RMK AO2 T03130229
KIYA 172135Z AUTO 22006KT 10SM CLR 32/24 A3002 RMK AO2 T03200242
KIYA 172115Z AUTO 10SM CLR 33/23 A3002 RMK AO2 T03260233
KIYA 172055Z AUTO 27005G20KT 10SM CLR 32/23 A3003 RMK AO2 T03150229
KIYA 172035Z AUTO 28006G25KT 10SM CLR 32/23 A3004 RMK AO2 T03180227
KIYA 172015Z AUTO 27005KT 7SM CLR 32/23 A3005 RMK AO2 T03230232
KIYA 171955Z AUTO 31006KT 7SM CLR 32/24 A3005 RMK AO2 T03180244
KIYA 171935Z AUTO 29006KT 10SM CLR 32/24 A3005 RMK AO2 T03160240
KIYA 171915Z AUTO 7SM CLR 31/24 A3005 RMK AO2 T03130242
KIYA 171855Z AUTO 27006KT 10SM SCT028 SCT060 SCT075 31/25 A3006 RMK AO2 LTG DSNT N T03130250
KIYA 171835Z AUTO 28008KT 7SM BKN028 BKN046 BKN060 31/26 A3007 RMK AO2 T03110256
KIYA 171815Z AUTO 10SM SCT028 SCT046 SCT060 31/26 A3008 RMK AO2 T03120257
KIYA 171755Z AUTO 27006KT 10SM CLR 31/26 A3008 RMK AO2 6//// T03050255
KIYA 171735Z AUTO 29009KT 7SM CLR 30/26 A3008 RMK AO2 T03020255
KIYA 171715Z AUTO 30009G35KT 10SM SCT025 SCT065 SCT080 30/25 A3008 RMK AO2 T03040253
KIYA 171655Z AUTO 10SM SCT021 30/26 A3008 RMK AO2 LTG DSNT NE T03010259
KIYA 171635Z AUTO 29006G43KT 10SM SCT019 SCT060 30/27 A3009 RMK AO2 T02950265
KIYA 171615Z AUTO 29007KT 10SM SCT019 SCT065 SCT070 30/27 A3008 RMK AO2 T02960269
KIYA 171555Z AUTO 7SM SCT017 SCT028 SCT055 29/27 A3008 RMK AO2 T02910268
KIYA 171535Z AUTO 7SM SCT015 SCT028 29/27 A3009 RMK AO2 T02890267
KIYA 171515Z AUTO 25004KT 10SM SCT015 29/27 A3009 RMK AO2 T02850268
KIYA 171455Z AUTO 10SM SCT012 SCT040 28/27 A3009 RMK AO2 6//// T02810268
KIYA 171435Z AUTO 10SM SCT012 28/27 A3008 RMK AO2 T02800273
KIYA 171415Z AUTO 27005KT 10SM CLR 28/27 A3008 RMK AO2 T02750270
KIYA 171355Z AUTO 29003KT 27/27 A3008 RMK AO2 T02720270 PWINO
KIYA 171334Z AUTO 28012G30KT 7SM CLR 27/27 A3007 RMK AO2
KIYA 171314Z AUTO 27005G38KT 7SM CLR 27/27 A3007 RMK AO2
KIYA 171254Z AUTO 27003KT 7SM CLR 26/26 A3007 RMK AO2
KIYA 171234Z AUTO 26005KT 7SM CLR 26/26 A3007 RMK AO2
KIYA 171215Z AUTO 00000KT 7SM CLR 24/24 A3007 RMK AO2
KIYA 171154Z AUTO 00000KT 7SM CLR 24/24 A3007 RMK AO2
KIYA 171134Z AUTO 00000KT 7SM CLR 24/24 A3006 RMK AO2
KIYA 171114Z AUTO 00000KT 10SM CLR 24/24 A3006 RMK AO2
KIYA 171054Z AUTO 00000KT 10SM CLR 25/25 A3006 RMK AO2
KIYA 171034Z AUTO 28003KT 10SM CLR 25/25 A3005 RMK AO2
KIYA 171014Z AUTO 24003KT 10SM CLR 26/26 A3005 RMK AO2
KIYA 170954Z AUTO 23003KT 10SM CLR 26/26 A3004 RMK AO2
KIYA 170934Z AUTO 00000KT 10SM CLR 26/26 A3004 RMK AO2
KIYA 170914Z AUTO 00000KT 10SM CLR 26/26 A3003 RMK AO2
KIYA 170855Z AUTO 24003KT 10SM CLR 26/26 A3003 RMK AO2
KIYA 170835Z AUTO 22004KT 10SM CLR 26/26 A3003 RMK AO2
KIYA 170815Z AUTO 24004KT 10SM CLR 26/26 A3003 RMK AO2